Time;durP1;ratioP1;P1;durP2;ratioP2;P2;SDS_P1;SDS_P2;PMS_P1;PMS_P2;Temp;Humidity;BMP_temperature;BMP_pressure;BME280_temperature;BME280_humidity;BME280_pressure;Samples;Min_cycle;Max_cycle;Signal;HPM_P1;HPM_P2
2022/08/30 00:02:02;;;;;;;9.57;6.25;;;19.30;99.90;;;18.54;80.14;97568.56;5009771;28;20889;-71
2022/08/30 00:04:28;;;;;;;11.20;6.63;;;19.20;99.90;;;18.47;82.91;97566.28;5011125;28;20890;-72
2022/08/30 00:06:53;;;;;;;11.30;6.90;;;19.20;99.90;;;18.45;84.77;97571.16;5011285;28;20890;-71
2022/08/30 00:09:20;;;;;;;9.32;6.13;;;19.20;99.90;;;18.44;85.11;97571.44;5011357;28;20411;-71
2022/08/30 00:11:46;;;;;;;11.23;6.60;;;19.20;99.90;;;18.42;85.73;97568.25;5011438;28;20405;-72
2022/08/30 00:14:12;;;;;;;10.73;6.47;;;19.20;99.90;;;18.44;83.20;97569.56;5010684;28;20471;-72
2022/08/30 00:16:39;;;;;;;9.17;6.50;;;19.20;99.90;;;18.43;82.08;97567.16;5011145;28;20457;-71
2022/08/30 00:19:05;;;;;;;12.15;6.55;;;19.10;99.90;;;18.37;84.22;97577.19;5011160;28;20411;-71
2022/08/30 00:21:31;;;;;;;9.40;6.63;;;19.10;99.90;;;18.35;83.32;97578.56;5011018;28;20420;-71
2022/08/30 00:23:57;;;;;;;10.23;6.90;;;19.10;99.90;;;18.29;86.53;97579.75;5010612;28;20408;-72
2022/08/30 00:26:23;;;;;;;10.63;6.63;;;19.00;99.90;;;18.28;87.41;97578.97;5010996;28;20813;-71
2022/08/30 00:28:49;;;;;;;10.02;6.22;;;19.00;99.90;;;18.31;82.86;97585.63;5010964;28;20408;-72
2022/08/30 00:31:15;;;;;;;12.15;6.90;;;19.00;99.90;;;18.25;86.27;97584.13;5009594;28;20425;-72
2022/08/30 00:33:42;;;;;;;14.57;6.85;;;19.00;99.90;;;18.26;86.91;97586.53;5010448;28;20408;-71
2022/08/30 00:36:08;;;;;;;11.95;6.53;;;19.00;99.90;;;18.25;85.37;97576.09;5010877;28;20822;-72
2022/08/30 00:38:34;;;;;;;10.85;6.55;;;19.00;99.90;;;18.25;83.11;97590.28;5010397;28;20466;-72
2022/08/30 00:41:00;;;;;;;14.30;6.13;;;19.00;99.90;;;18.25;78.56;97587.63;5010886;28;20401;-72
2022/08/30 00:43:33;;;;;;;10.10;6.57;;;18.90;99.90;;;18.16;80.07;97579.47;5009642;28;20574;-72
2022/08/30 00:46:03;;;;;;;15.05;6.80;;;18.80;99.90;;;18.09;84.28;97584.41;5008395;28;20412;-72
2022/08/30 00:48:30;;;;;;;12.35;6.85;;;18.80;99.90;;;18.06;86.08;97582.28;5010457;28;20984;-72
2022/08/30 00:51:04;;;;;;;11.60;6.93;;;18.80;99.90;;;18.05;87.21;97575.34;5007928;28;20404;-71
2022/08/30 00:53:35;;;;;;;17.13;7.13;;;18.80;99.90;;;18.08;83.89;97582.00;5010165;28;20476;-71
2022/08/30 00:56:04;;;;;;;11.77;6.53;;;18.80;99.90;;;18.06;85.92;97578.81;5008641;28;20409;-72
2022/08/30 00:58:33;;;;;;;10.10;7.18;;;18.80;99.90;;;18.01;87.59;97577.03;5010617;28;20427;-71
2022/08/30 01:01:00;;;;;;;15.70;6.72;;;18.80;99.90;;;18.05;82.77;97572.66;5008326;28;20458;-72
2022/08/30 01:03:28;;;;;;;15.85;6.72;;;18.80;99.90;;;18.09;77.56;97578.25;5010073;28;20400;-72
2022/08/30 01:05:57;;;;;;;16.33;6.95;;;18.70;99.90;;;17.96;82.13;97585.16;5010294;28;20773;-72
2022/08/30 01:08:23;;;;;;;14.43;7.03;;;18.70;99.90;;;17.97;78.80;97577.91;5010433;28;20515;-72
2022/08/30 01:10:51;;;;;;;10.47;6.97;;;18.60;99.90;;;17.93;81.12;97584.94;5010433;28;20939;-73
2022/08/30 01:13:20;;;;;;;16.23;6.97;;;18.60;99.90;;;17.89;79.89;97587.44;5007606;28;20451;-71
2022/08/30 01:15:48;;;;;;;13.57;6.72;;;18.60;99.90;;;17.93;76.58;97585.75;5008967;28;20416;-72
2022/08/30 01:18:16;;;;;;;13.17;7.20;;;18.60;99.90;;;17.77;82.73;97574.47;5010345;28;20489;-72
2022/08/30 01:20:48;;;;;;;11.02;6.78;;;18.50;99.90;;;17.77;84.38;97576.38;5010341;28;20413;-72
2022/08/30 01:23:18;;;;;;;18.25;7.30;;;18.50;99.90;;;17.81;81.54;97581.94;5009848;28;20404;-72
2022/08/30 01:25:48;;;;;;;10.25;7.05;;;18.50;99.90;;;17.75;84.56;97579.31;5010244;28;20412;-71
2022/08/30 01:28:20;;;;;;;12.15;7.65;;;18.50;99.90;;;17.72;87.19;97576.44;5008857;28;20795;-72
2022/08/30 01:30:46;;;;;;;12.13;7.53;;;18.50;99.90;;;17.72;88.89;97576.44;5010428;28;20428;-72
2022/08/30 01:33:13;;;;;;;16.33;7.18;;;18.50;99.90;;;17.75;85.94;97578.53;5009604;28;20397;-72
2022/08/30 01:35:47;;;;;;;14.13;7.35;;;18.50;99.90;;;17.76;85.26;97577.44;5010170;28;20415;-72
2022/08/30 01:38:17;;;;;;;11.95;7.13;;;18.50;99.90;;;17.72;85.14;97573.78;5008836;28;20408;-72
2022/08/30 01:40:43;;;;;;;14.57;7.68;;;18.50;99.90;;;17.72;81.89;97579.13;5010168;28;20801;-72
2022/08/30 01:43:11;;;;;;;13.35;7.72;;;18.40;99.90;;;17.61;86.50;97578.47;5009726;28;20482;-72
2022/08/30 01:45:37;;;;;;;12.30;8.07;;;18.40;99.90;;;17.59;88.06;97577.94;5017461;23;20384;-73
2022/08/30 01:48:03;;;;;;;10.02;7.43;;;18.40;99.90;;;17.59;89.33;97577.94;4989828;28;20505;-73
2022/08/30 01:50:29;;;;;;;15.48;6.82;;;18.40;99.90;;;17.64;84.80;97582.47;4991940;28;20417;-73
2022/08/30 01:52:55;;;;;;;12.67;8.07;;;18.40;99.90;;;17.58;88.85;97586.28;4993627;28;20872;-73
2022/08/30 01:55:22;;;;;;;12.00;7.80;;;18.30;99.90;;;17.55;89.95;97587.66;4995028;28;20509;-73
2022/08/30 01:57:48;;;;;;;13.88;6.53;;;18.40;99.90;;;17.58;87.78;97587.06;5003180;28;20416;-73
2022/08/30 02:00:16;;;;;;;14.00;8.52;;;18.40;99.90;;;17.55;90.91;97592.19;5004654;28;20400;-72
2022/08/30 02:02:42;;;;;;;14.05;7.40;;;18.30;99.90;;;17.57;89.74;97592.72;5003091;28;20416;-72
2022/08/30 02:05:09;;;;;;;15.85;7.03;;;18.40;99.90;;;17.56;88.09;97589.25;5002799;28;20512;-73
2022/08/30 02:07:35;;;;;;;9.63;7.18;;;18.30;99.90;;;17.53;85.63;97584.47;5004547;28;20988;-72
2022/08/30 02:10:01;;;;;;;16.40;7.10;;;18.30;99.90;;;17.49;85.76;97594.16;5003388;28;20497;-73
2022/08/30 02:12:29;;;;;;;12.70;6.93;;;18.20;99.90;;;17.46;83.29;97592.06;5002950;28;20408;-73
2022/08/30 02:14:55;;;;;;;12.40;7.47;;;18.20;99.90;;;17.39;84.79;97586.28;5004158;28;20403;-73
2022/08/30 02:17:21;;;;;;;17.17;6.63;;;18.10;99.90;;;17.35;85.77;97585.28;5002799;28;20497;-73
2022/08/30 02:19:47;;;;;;;14.25;7.40;;;18.10;99.90;;;17.30;89.05;97575.44;5003102;28;20408;-73
2022/08/30 02:22:13;;;;;;;10.93;7.95;;;18.10;99.90;;;17.28;90.27;97582.97;5004164;28;20408;-72
2022/08/30 02:24:39;;;;;;;13.45;7.50;;;18.10;99.90;;;17.28;89.97;97582.16;5002233;28;20407;-73
2022/08/30 02:27:05;;;;;;;16.80;8.02;;;18.10;99.90;;;17.27;90.97;97573.34;5003093;28;20412;-73
2022/08/30 02:29:32;;;;;;;14.20;7.57;;;18.00;99.90;;;17.26;90.83;97570.94;5004272;28;20410;-73
2022/08/30 02:31:58;;;;;;;11.47;7.90;;;18.00;99.90;;;17.24;92.19;97573.13;5002520;28;20410;-73
2022/08/30 02:34:24;;;;;;;16.48;6.88;;;18.00;99.90;;;17.26;90.21;97562.94;5002558;28;20405;-72
2022/08/30 02:36:50;;;;;;;13.57;6.78;;;18.00;99.90;;;17.30;84.57;97562.03;5003867;28;20452;-73
2022/08/30 02:39:17;;;;;;;9.50;7.32;;;18.00;99.90;;;17.21;89.17;97557.66;5003985;28;20413;-73
2022/08/30 02:41:43;;;;;;;10.25;6.47;;;18.00;99.90;;;17.23;83.55;97558.94;5002801;28;20741;-72
2022/08/30 02:44:10;;;;;;;10.60;7.68;;;18.00;99.90;;;17.15;87.26;97564.13;5001822;28;20404;-72
2022/08/30 02:46:38;;;;;;;10.48;7.60;;;17.90;99.90;;;17.10;89.55;97564.22;5003660;28;20794;-72
2022/08/30 02:49:04;;;;;;;13.43;7.90;;;17.90;99.90;;;17.08;91.61;97561.03;5003119;28;20473;-73
2022/08/30 02:51:30;;;;;;;11.82;7.78;;;17.90;99.90;;;17.09;92.83;97573.31;5002014;28;20419;-72
2022/08/30 02:53:56;;;;;;;10.35;6.78;;;17.90;99.90;;;17.10;93.18;97567.69;5003364;28;20898;-72
2022/08/30 02:56:22;;;;;;;17.63;7.90;;;17.90;99.90;;;17.13;92.78;97569.00;5002533;28;20491;-73
2022/08/30 02:58:48;;;;;;;14.37;7.63;;;17.90;99.90;;;17.11;93.09;97560.47;5002205;28;20404;-73
2022/08/30 03:01:17;;;;;;;10.45;7.53;;;17.90;99.90;;;17.09;94.05;97557.28;5003165;28;20400;-73
2022/08/30 03:03:45;;;;;;;13.82;7.13;;;17.90;99.90;;;17.10;92.65;97553.53;5002106;28;20407;-73
2022/08/30 03:06:12;;;;;;;12.43;7.77;;;17.90;99.90;;;17.08;94.32;97553.81;5001635;28;20428;-73
2022/08/30 03:08:38;;;;;;;15.18;7.88;;;17.90;99.90;;;17.09;93.19;97546.56;5001625;28;20426;-72
2022/08/30 03:11:04;;;;;;;12.70;8.00;;;17.90;99.90;;;17.09;89.80;97544.69;5002545;28;20754;-73
2022/08/30 03:13:31;;;;;;;10.90;6.97;;;17.80;99.90;;;17.02;89.78;97550.41;5002908;28;20406;-72
2022/08/30 03:15:57;;;;;;;14.65;7.80;;;17.80;99.90;;;17.00;88.89;97549.09;5001311;28;20933;-73
2022/08/30 03:18:24;;;;;;;13.57;7.82;;;17.80;99.90;;;16.93;90.98;97548.66;5002593;28;20492;-72
2022/08/30 03:20:51;;;;;;;15.35;8.90;;;17.70;99.90;;;16.90;92.29;97543.91;5003100;28;20923;-73
2022/08/30 03:23:18;;;;;;;11.48;8.52;;;17.70;99.90;;;16.89;93.54;97543.09;5003522;28;20478;-73
2022/08/30 03:25:44;;;;;;;12.15;8.00;;;17.70;99.90;;;16.88;93.91;97536.16;5002315;28;20500;-73
2022/08/30 03:28:10;;;;;;;12.25;8.30;;;17.70;99.90;;;16.89;93.49;97534.28;5002809;28;20484;-73
2022/08/30 03:30:36;;;;;;;12.52;8.40;;;17.70;99.90;;;16.87;94.35;97542.59;5001045;28;20760;-73
2022/08/30 03:33:03;;;;;;;15.98;7.93;;;17.70;99.90;;;16.93;84.34;97549.44;5000536;28;20463;-73
2022/08/30 03:35:30;;;;;;;16.88;7.35;;;17.60;99.90;;;16.84;86.25;97547.72;5002517;28;20425;-73
2022/08/30 03:37:58;;;;;;;11.43;7.68;;;17.60;99.90;;;16.75;90.12;97539.53;5002563;28;20412;-73
2022/08/30 03:40:24;;;;;;;13.10;8.05;;;17.50;99.90;;;16.74;91.79;97537.16;5010413;28;20413;-73
2022/08/30 03:42:50;;;;;;;13.03;8.03;;;17.50;99.90;;;16.76;92.72;97538.47;4999423;28;20404;-73
2022/08/30 03:45:18;;;;;;;16.98;8.30;;;17.50;99.90;;;16.78;89.68;97535.47;5002147;28;20440;-73
2022/08/30 03:47:45;;;;;;;14.00;7.88;;;17.50;99.90;;;16.77;91.04;97541.91;5004004;28;20851;-73
2022/08/30 03:50:14;;;;;;;16.77;7.55;;;17.50;99.90;;;16.76;90.31;97535.00;5001125;28;20412;-71
2022/08/30 03:52:41;;;;;;;13.98;7.55;;;17.50;99.90;;;16.76;85.53;97530.44;5000807;28;20429;-72
2022/08/30 03:55:08;;;;;;;11.35;8.20;;;17.50;99.90;;;16.65;90.80;97539.66;5001463;28;20774;-73
2022/08/30 03:57:34;;;;;;;14.88;7.65;;;17.40;99.90;;;16.64;92.36;97543.41;5002539;28;20401;-72
2022/08/30 04:00:02;;;;;;;11.90;7.57;;;17.40;99.90;;;16.67;89.94;97545.53;5000989;28;20430;-72
2022/08/30 04:02:28;;;;;;;12.77;7.93;;;17.40;99.90;;;16.64;88.66;97546.09;5000960;28;20443;-73
2022/08/30 04:04:54;;;;;;;12.38;8.50;;;17.40;99.90;;;16.56;91.08;97539.47;5002009;28;20401;-72
2022/08/30 04:07:20;;;;;;;17.33;7.30;;;17.40;99.90;;;16.58;88.71;97548.00;5000555;28;21075;-72
2022/08/30 04:09:46;;;;;;;14.40;7.78;;;17.30;99.90;;;16.62;82.91;97538.34;5001282;28;20495;-73
2022/08/30 04:12:13;;;;;;;13.10;7.80;;;17.30;99.90;;;16.47;86.98;97541.16;5001594;28;20402;-73
2022/08/30 04:14:39;;;;;;;12.38;8.48;;;17.20;99.90;;;16.41;90.29;97539.63;4999912;28;20509;-73
2022/08/30 04:17:05;;;;;;;13.30;8.45;;;17.20;99.90;;;16.37;92.36;97532.50;5001408;28;20508;-72
2022/08/30 04:19:31;;;;;;;13.02;8.25;;;17.20;99.90;;;16.39;93.44;97538.34;5002002;28;20474;-73
2022/08/30 04:21:57;;;;;;;13.55;8.60;;;17.20;99.90;;;16.41;94.14;97541.50;4999978;28;20888;-72
2022/08/30 04:24:24;;;;;;;15.73;8.33;;;17.20;99.90;;;16.41;93.60;97547.66;5000952;28;20404;-72
2022/08/30 04:26:50;;;;;;;15.73;7.90;;;17.30;99.90;;;16.43;91.48;97553.50;5001432;28;20406;-72
2022/08/30 04:29:17;;;;;;;15.15;7.45;;;17.20;99.90;;;16.44;88.28;97551.63;4999757;28;20477;-73
2022/08/30 04:31:44;;;;;;;13.70;8.73;;;17.20;99.90;;;16.36;92.83;97552.25;5001397;28;20799;-73
2022/08/30 04:34:11;;;;;;;16.88;8.10;;;17.10;99.90;;;16.37;92.92;97559.19;5001022;28;20749;-73
2022/08/30 04:36:37;;;;;;;16.52;7.70;;;17.20;99.90;;;16.41;88.47;97549.53;4999674;28;20406;-73
2022/08/30 04:39:03;;;;;;;14.30;7.70;;;17.10;99.90;;;16.36;89.30;97547.72;5000992;28;20886;-73
2022/08/30 04:41:29;;;;;;;15.90;7.60;;;17.10;99.90;;;16.35;88.13;97558.69;4999923;28;20509;-73
2022/08/30 04:43:55;;;;;;;14.35;9.07;;;17.10;99.90;;;16.28;91.66;97551.00;4999062;28;20877;-72
2022/08/30 04:46:22;;;;;;;13.80;9.43;;;17.10;99.90;;;16.24;94.01;97553.44;5001250;28;20415;-73
2022/08/30 04:48:48;;;;;;;15.15;9.55;;;17.00;99.90;;;16.25;94.88;97562.25;5000949;28;20414;-73
2022/08/30 04:51:16;;;;;;;16.92;8.52;;;17.10;99.90;;;16.27;93.49;97554.75;4999666;28;20411;-72
2022/08/30 04:53:44;;;;;;;14.20;8.48;;;17.10;99.90;;;16.29;93.77;97563.28;5000628;28;20973;-73
2022/08/30 04:56:17;;;;;;;13.95;9.38;;;17.10;99.90;;;16.27;95.42;97560.09;5000941;28;20406;-73
2022/08/30 04:58:44;;;;;;;16.17;9.05;;;17.10;99.90;;;16.29;96.32;97565.97;5000221;28;20409;-73
2022/08/30 05:01:13;;;;;;;18.95;9.05;;;17.10;99.90;;;16.32;95.38;97570.72;4999872;28;20403;-73
2022/08/30 05:03:40;;;;;;;14.37;8.30;;;17.10;99.90;;;16.36;92.45;97581.66;4999002;28;20409;-73
2022/08/30 05:06:06;;;;;;;17.63;8.23;;;17.10;99.90;;;16.39;88.69;97579.19;5000526;28;20818;-73
2022/08/30 05:08:32;;;;;;;16.70;8.10;;;17.10;99.90;;;16.39;85.60;97581.09;5001133;28;20513;-73
2022/08/30 05:10:58;;;;;;;14.68;9.23;;;17.10;99.90;;;16.32;91.16;97588.63;4999297;28;20414;-73
2022/08/30 05:13:24;;;;;;;13.73;9.15;;;17.10;99.90;;;16.33;93.69;97587.53;5000071;28;20408;-73
2022/08/30 05:15:50;;;;;;;15.40;9.15;;;17.10;99.90;;;16.40;95.57;97585.34;5000614;28;20410;-73
2022/08/30 05:18:16;;;;;;;15.57;8.30;;;17.20;99.90;;;16.47;94.94;97593.81;4999248;28;20406;-72
2022/08/30 05:20:43;;;;;;;18.83;8.77;;;17.20;99.90;;;16.55;94.55;97599.34;5000762;28;20462;-73
2022/08/30 05:23:10;;;;;;;14.32;8.63;;;17.30;99.90;;;16.61;94.62;97597.44;5000054;28;20403;-73
2022/08/30 05:25:38;;;;;;;18.45;8.68;;;17.30;99.90;;;16.67;92.94;97596.31;4999020;28;20402;-73
2022/08/30 05:28:05;;;;;;;14.37;8.57;;;17.40;99.90;;;16.72;93.83;97595.44;5000563;28;20416;-73
2022/08/30 05:30:34;;;;;;;14.60;8.60;;;17.40;99.90;;;16.76;94.57;97594.59;5000816;28;20405;-73
2022/08/30 05:33:01;;;;;;;12.50;8.77;;;17.50;99.90;;;16.82;95.24;97590.78;4998784;28;20407;-73
2022/08/30 05:35:27;;;;;;;13.48;9.05;;;17.50;99.90;;;16.88;96.14;97591.50;4999838;28;20890;-73
2022/08/30 05:37:55;;;;;;;13.98;8.52;;;17.60;99.90;;;16.92;96.42;97584.50;5000935;28;20792;-74
2022/08/30 05:40:21;;;;;;;16.65;8.90;;;17.70;99.90;;;16.94;95.96;97575.13;4999329;28;20402;-73
2022/08/30 05:42:47;;;;;;;12.93;8.60;;;17.70;99.90;;;16.95;95.15;97582.06;4999454;28;20400;-72
2022/08/30 05:45:14;;;;;;;20.07;8.50;;;17.70;99.90;;;16.96;90.94;97586.31;5000949;28;20423;-73
2022/08/30 05:47:41;;;;;;;23.10;9.73;;;17.70;99.90;;;16.93;90.29;97589.56;4999120;28;20430;-72
2022/08/30 05:50:08;;;;;;;14.45;8.57;;;17.70;99.90;;;16.90;92.48;97582.13;4999794;28;20956;-73
2022/08/30 05:52:35;;;;;;;15.57;9.10;;;17.60;99.90;;;16.90;92.67;97582.13;5000710;28;20419;-74
2022/08/30 05:55:04;;;;;;;12.98;8.65;;;17.60;99.90;;;16.93;94.32;97586.09;4998718;28;20429;-74
2022/08/30 05:57:32;;;;;;;16.80;9.25;;;17.70;99.90;;;16.94;95.23;97577.00;4999374;28;20770;-74
2022/08/30 05:59:59;;;;;;;13.02;8.38;;;17.70;99.90;;;16.99;95.28;97582.25;5000665;28;20404;-74
2022/08/30 06:02:25;;;;;;;15.75;8.85;;;17.70;99.90;;;17.02;94.68;97581.69;4999591;28;20914;-73
2022/08/30 06:04:51;;;;;;;12.77;8.63;;;17.70;99.90;;;17.07;95.16;97589.66;4998752;28;20401;-75
2022/08/30 06:07:17;;;;;;;11.57;7.80;;;17.80;99.90;;;17.13;95.24;97593.06;5000518;28;21066;-74
2022/08/30 06:09:43;;;;;;;13.88;8.50;;;17.80;99.90;;;17.18;95.78;97593.00;4999174;28;20426;-72
2022/08/30 06:12:10;;;;;;;18.15;8.20;;;17.80;99.90;;;17.23;94.98;97599.06;4999190;28;20412;-72
2022/08/30 06:14:38;;;;;;;13.25;8.05;;;17.90;99.90;;;17.29;94.94;97595.22;5000195;28;20404;-75
2022/08/30 06:17:04;;;;;;;16.27;8.63;;;18.00;99.90;;;17.39;95.62;97602.34;4999996;28;20783;-74
2022/08/30 06:19:30;;;;;;;12.85;8.52;;;18.10;99.90;;;17.48;95.36;97599.81;5001509;28;20413;-73
2022/08/30 06:21:56;;;;;;;13.83;9.53;;;18.10;99.90;;;17.56;96.13;97601.84;5000344;28;20965;-73
2022/08/30 06:24:22;;;;;;;15.35;8.48;;;18.20;99.90;;;17.65;95.61;97603.59;4991516;28;20410;-73
2022/08/30 06:26:48;;;;;;;13.05;8.88;;;18.30;99.90;;;17.75;95.79;97605.31;4990392;28;20407;-74
2022/08/30 06:29:18;;;;;;;12.25;8.55;;;18.40;99.90;;;17.85;95.48;97601.69;4989183;28;20415;-73
2022/08/30 06:31:46;;;;;;;17.60;9.05;;;18.50;99.90;;;17.93;94.94;97601.81;4990564;28;20485;-74
2022/08/30 06:34:12;;;;;;;13.10;9.10;;;18.60;99.90;;;18.00;94.37;97599.56;4989814;28;20512;-73
2022/08/30 06:36:39;;;;;;;14.20;8.95;;;18.60;99.90;;;18.06;93.92;97598.38;4991899;28;20417;-75
2022/08/30 06:39:06;;;;;;;14.32;8.95;;;18.70;99.90;;;18.10;93.90;97591.34;5012972;28;20397;-72
2022/08/30 06:41:35;;;;;;;16.30;9.15;;;18.70;99.90;;;18.16;93.26;97597.41;5013216;28;20878;-75
2022/08/30 06:44:03;;;;;;;14.35;9.65;;;18.80;99.90;;;18.16;93.07;97600.88;5011278;28;20407;-72
2022/08/30 06:46:35;;;;;;;19.00;9.52;;;18.80;99.90;;;18.21;92.69;97597.31;5005928;28;20460;-73
2022/08/30 06:49:02;;;;;;;16.80;10.60;;;18.80;99.90;;;18.25;92.74;97598.34;5007734;28;20829;-73
2022/08/30 06:51:33;;;;;;;15.50;9.85;;;18.90;99.90;;;18.27;92.75;97593.44;5003666;28;20477;-74
2022/08/30 06:54:00;;;;;;;15.75;9.50;;;18.90;99.90;;;18.29;91.89;97595.84;5007006;28;20417;-76
2022/08/30 06:56:26;;;;;;;16.07;9.80;;;18.90;99.90;;;18.32;92.09;97592.59;5005082;28;20999;-74
2022/08/30 06:58:53;;;;;;;18.80;9.32;;;19.00;99.90;;;18.31;91.96;97589.09;5002114;28;20404;-75
2022/08/30 07:01:22;;;;;;;13.80;9.30;;;19.00;99.90;;;18.38;92.18;97592.19;5003749;28;20413;-73
2022/08/30 07:03:51;;;;;;;14.55;9.93;;;19.00;99.90;;;18.42;92.62;97595.84;5002470;28;20406;-74
2022/08/30 07:06:18;;;;;;;14.32;9.45;;;19.10;99.90;;;18.49;92.98;97601.63;5001675;28;20407;-74
2022/08/30 07:08:45;;;;;;;19.55;10.40;;;19.10;99.90;;;18.52;92.08;97598.34;5010934;28;20448;-74
2022/08/30 07:11:11;;;;;;;16.75;9.85;;;19.20;99.90;;;18.57;92.12;97605.53;5010109;28;20400;-74
2022/08/30 07:13:37;;;;;;;22.15;10.18;;;19.20;99.90;;;18.61;92.19;97608.44;5009966;28;20425;-76
2022/08/30 07:16:10;;;;;;;15.65;10.52;;;19.20;99.90;;;18.63;92.05;97604.38;5010815;28;20464;-73
2022/08/30 07:18:54;;;;;;;15.23;10.02;;;19.30;99.90;;;18.66;91.88;97600.28;5004283;28;20409;-72
2022/08/30 07:21:25;;;;;;;16.25;10.32;;;19.30;99.90;;;18.70;92.13;97594.03;5006343;28;20962;-72
2022/08/30 07:23:53;;;;;;;14.70;9.80;;;19.30;99.90;;;18.73;92.62;97606.84;5005223;28;20785;-73
2022/08/30 07:26:23;;;;;;;20.83;10.85;;;19.30;99.90;;;18.76;92.53;97600.88;5009242;28;20419;-72
2022/08/30 07:28:49;;;;;;;15.65;10.45;;;19.40;99.90;;;18.78;91.82;97596.03;5004880;28;20417;-73
2022/08/30 07:31:18;;;;;;;14.73;9.90;;;19.40;99.90;;;18.81;91.43;97603.47;5008097;28;20413;-71
2022/08/30 07:33:45;;;;;;;19.90;10.02;;;19.40;99.90;;;18.88;91.58;97608.41;5007436;28;20405;-72
2022/08/30 07:36:12;;;;;;;15.48;10.05;;;19.50;99.90;;;18.94;91.96;97605.34;5006581;28;20951;-72
2022/08/30 07:38:39;;;;;;;18.08;9.98;;;19.50;99.90;;;19.01;91.55;97604.16;5006154;28;20438;-73
2022/08/30 07:41:06;;;;;;;17.05;10.32;;;19.60;99.90;;;19.07;91.27;97611.00;5006174;28;20443;-72
2022/08/30 07:43:34;;;;;;;16.80;9.98;;;19.70;99.90;;;19.15;90.69;97605.72;5005171;28;20758;-76
2022/08/30 07:46:02;;;;;;;14.40;9.48;;;19.70;99.90;;;19.24;90.66;97611.19;5011552;28;20421;-74
2022/08/30 07:51:03;;;;;;;15.65;9.40;;;19.90;99.90;;;19.40;90.14;97609.72;4947076;29;20437;-70
2022/08/30 07:53:29;;;;;;;15.00;9.75;;;20.00;99.90;;;19.44;89.97;97607.25;4948709;29;20500;-70
2022/08/30 07:55:57;;;;;;;14.73;9.60;;;20.00;99.90;;;19.46;89.44;97608.53;4947815;28;20476;-70
2022/08/30 07:58:23;;;;;;;14.40;9.23;;;20.00;99.90;;;19.49;89.71;97607.97;4946308;29;20779;-70
2022/08/30 08:00:49;;;;;;;16.00;9.70;;;20.10;99.90;;;19.51;90.25;97603.09;4950978;29;20410;-70
2022/08/30 08:03:15;;;;;;;16.30;9.23;;;20.10;99.90;;;19.55;89.88;97603.25;4952594;29;20420;-70
2022/08/30 08:05:44;;;;;;;15.77;9.38;;;20.10;99.90;;;19.61;89.19;97610.91;4953029;29;20851;-69
2022/08/30 08:08:10;;;;;;;14.77;9.13;;;20.20;99.90;;;19.69;88.87;97604.81;4951718;29;20769;-70
2022/08/30 08:10:38;;;;;;;19.27;9.43;;;20.20;99.90;;;19.77;88.38;97611.38;4950554;29;20418;-70
2022/08/30 08:13:06;;;;;;;13.75;9.02;;;20.30;99.90;;;19.86;87.68;97606.81;4950755;29;20574;-70
2022/08/30 08:15:32;;;;;;;16.10;8.90;;;20.40;99.90;;;19.96;87.55;97613.84;4952585;28;20410;-69
2022/08/30 08:17:59;;;;;;;15.03;9.70;;;20.50;99.90;;;20.04;87.23;97616.59;4948394;29;20452;-69
2022/08/30 08:20:26;;;;;;;14.95;8.85;;;20.60;99.90;;;20.05;80.76;97614.72;4949061;29;20418;-70
2022/08/30 08:22:52;;;;;;;14.68;8.70;;;20.60;99.90;;;20.14;82.91;97607.50;4947903;28;20512;-69
2022/08/30 08:25:18;;;;;;;14.02;8.60;;;20.70;99.90;;;20.23;83.42;97607.53;4947864;29;20437;-70
2022/08/30 08:27:47;;;;;;;15.65;8.80;;;20.80;99.90;;;20.29;84.05;97611.69;4940979;29;20789;-70
2022/08/30 08:30:15;;;;;;;13.20;8.15;;;20.80;99.90;;;20.35;84.12;97610.50;4945115;28;20920;-71
2022/08/30 08:32:41;;;;;;;18.45;9.18;;;20.90;99.90;;;20.39;82.28;97614.13;4947109;29;20909;-71
2022/08/30 08:35:10;;;;;;;12.65;8.60;;;21.00;99.90;;;20.50;82.69;97609.31;4947655;29;20425;-71
2022/08/30 08:37:36;;;;;;;11.63;8.18;;;21.00;99.90;;;20.64;83.01;97607.31;4948312;28;20476;-72
2022/08/30 08:40:03;;;;;;;15.98;8.65;;;21.10;99.90;;;20.71;82.03;97610.34;4952469;29;20417;-71
2022/08/30 08:42:45;;;;;;;11.65;8.15;;;21.30;99.90;;;20.79;80.10;97605.00;4952743;29;20502;-71
2022/08/30 08:45:18;;;;;;;12.23;7.38;;;21.30;99.90;;;20.89;78.14;97597.75;4951435;29;20413;-71
2022/08/30 08:48:07;;;;;;;15.10;8.13;;;21.40;99.90;;;20.97;78.98;97594.28;4948615;29;20414;-71
2022/08/30 08:50:34;;;;;;;11.18;7.60;;;21.50;99.90;;;21.10;79.80;97598.75;4952126;28;20484;-71
2022/08/30 08:55:54;;;;;;;15.85;9.10;;;21.70;99.90;;;21.22;72.85;97597.06;4951325;29;20526;-71
2022/08/30 08:58:24;;;;;;;10.95;7.45;;;21.80;99.90;;;21.34;74.43;97598.34;4952149;28;20410;-71
2022/08/30 09:00:53;;;;;;;15.48;7.70;;;21.90;99.90;;;21.42;76.56;97590.28;4952642;28;20394;-71
2022/08/30 09:03:22;;;;;;;11.38;7.40;;;21.90;99.90;;;21.55;76.70;97599.31;4951460;28;20889;-71
2022/08/30 09:05:50;;;;;;;11.32;7.30;;;22.00;99.90;;;21.60;77.14;97604.53;4946141;29;20426;-71
2022/08/30 09:08:18;;;;;;;12.85;7.40;;;22.10;99.90;;;21.66;77.15;97600.56;4941878;29;20426;-71
2022/08/30 09:10:57;;;;;;;10.88;7.00;;;22.20;99.90;;;21.75;77.35;97600.56;4950037;28;20441;-71
2022/08/30 09:13:24;;;;;;;11.30;7.03;;;22.20;99.90;;;21.80;76.92;97592.34;4950971;29;20414;-71
2022/08/30 09:15:54;;;;;;;14.63;6.90;;;22.30;99.90;;;21.88;75.09;97594.19;4950097;29;20845;-71
2022/08/30 09:18:42;;;;;;;10.63;7.15;;;22.30;99.90;;;21.96;75.96;97591.53;4952093;29;20406;-71
2022/08/30 09:21:10;;;;;;;10.57;7.13;;;22.40;99.90;;;22.06;76.21;97589.63;4952070;28;20779;-71
2022/08/30 09:23:45;;;;;;;11.02;6.35;;;22.50;99.90;;;22.19;77.03;97592.13;4951882;29;20405;-71
2022/08/30 09:26:12;;;;;;;10.45;6.90;;;22.60;99.90;;;22.27;77.17;97587.81;4952468;29;20409;-71
2022/08/30 09:28:47;;;;;;;14.60;6.95;;;22.70;99.90;;;22.35;75.66;97581.63;4952247;29;20444;-72
2022/08/30 09:31:21;;;;;;;10.97;6.63;;;22.80;99.90;;;22.42;75.38;97573.81;4952397;28;20422;-71
2022/08/30 09:33:54;;;;;;;8.15;6.13;;;22.90;99.90;;;22.56;75.95;97579.78;4951889;29;20410;-71
2022/08/30 09:36:25;;;;;;;8.95;6.45;;;23.00;99.90;;;22.63;75.22;97577.38;4952210;29;20781;-71
2022/08/30 09:38:59;;;;;;;11.07;6.80;;;23.10;99.90;;;22.72;75.22;97571.94;4951762;29;20820;-71
2022/08/30 09:41:35;;;;;;;10.35;6.38;;;23.10;99.90;;;22.76;74.72;97571.00;4952039;29;20416;-71
2022/08/30 09:44:09;;;;;;;12.87;6.43;;;23.20;99.90;;;22.81;71.63;97563.84;4951584;29;20833;-71
2022/08/30 09:46:47;;;;;;;13.25;6.60;;;23.20;99.90;;;22.89;71.29;97569.19;4951980;29;20418;-71
2022/08/30 09:49:34;;;;;;;8.07;6.13;;;23.30;99.90;;;22.98;73.80;97572.63;4950399;29;20417;-71
2022/08/30 09:52:28;;;;;;;9.68;6.30;;;23.40;99.90;;;23.01;73.55;97552.28;4951861;29;20418;-71
2022/08/30 09:55:08;;;;;;;8.23;6.55;;;23.40;99.90;;;23.08;72.23;97558.75;4951498;28;20414;-71
2022/08/30 09:57:44;;;;;;;8.73;5.63;;;23.50;99.90;;;23.20;72.91;97552.63;4952021;28;20410;-71
2022/08/30 10:00:16;;;;;;;9.15;5.50;;;23.60;99.90;;;23.26;71.39;97551.31;4951834;29;20397;-71
2022/08/30 10:03:24;;;;;;;8.65;5.95;;;23.70;99.90;;;23.34;70.89;97555.88;4951591;29;20394;-71
2022/08/30 10:06:00;;;;;;;10.13;6.20;;;23.70;99.90;;;23.47;72.12;97551.31;4946496;28;20425;-71
2022/08/30 10:08:41;;;;;;;8.13;5.68;;;23.90;99.90;;;23.63;71.67;97549.63;4951809;29;20426;-71
2022/08/30 10:11:19;;;;;;;12.50;6.18;;;24.00;99.90;;;23.66;69.40;97538.16;4952725;28;20401;-71
2022/08/30 10:14:04;;;;;;;9.90;5.80;;;24.10;99.90;;;23.71;68.16;97540.66;4955021;29;20848;-71
2022/08/30 10:16:43;;;;;;;10.55;5.95;;;24.10;99.50;;;23.81;68.24;97534.03;4954562;29;20410;-71
2022/08/30 10:19:28;;;;;;;9.70;5.90;;;24.20;99.80;;;23.97;67.84;97532.28;4955584;29;20401;-71
2022/08/30 10:22:02;;;;;;;9.20;5.63;;;24.40;99.10;;;24.14;67.79;97526.69;4955648;29;20409;-71
2022/08/30 10:24:34;;;;;;;10.75;5.20;;;24.50;99.50;;;24.32;61.71;97519.19;4955144;28;20460;-71